• Join FlightAware (Why Join?)
  • Login
  • US Flag 
10:57AM EDT


 

Airport Tracker/Info


-or-


 

Live Flight TrackerFlight Track Log ✈ KCE2 ✈ 16-May-2013 ✈ KPVD - KPSM

Flight Track Log - Related Links

Times and Time Zones

All times are in EDT time to prevent confusion due to time zone crossing. See the KCE2 flight status page for this flight to view local times or setup timezone preferences in your user account.

Time Position Orientation Groundspeed Altitude Reporting Facility
EDT Latitude Longitude Course Direction KTS MPH feet Rate Location/Type
04:35PM 41.7042 -71.4558 235° Southwest 171 197 2,100  Level Boston Center
04:36PM 41.6944 -71.5419 261° West 220 253 4,000 1,020 Climbing Boston Center
04:42PM 42.0530 -71.3780 261° West 322 371 9,300 840 Climbing FlightAware
04:42PM 42.0660 -71.3660 34° Northeast 323 372 9,300 300 Level FlightAware
04:43PM 42.1640 -71.2910 30° Northeast 322 371 9,800 600 Climbing FlightAware
04:45PM 42.3170 -71.1630 32° Northeast 370 426 11,300 600 Climbing FlightAware
04:46PM 42.3740 -71.1130 33° Northeast 365 420 11,300  Level FlightAware
04:47PM 42.4410 -71.0560 32° Northeast 368 423 11,300  Level FlightAware
04:47PM 42.5010 -71.0040 33° Northeast 368 423 11,300 -240 Level FlightAware
04:48PM 42.5650 -70.9470 33° Northeast 365 420 11,000 -780 Descending FlightAware
04:49PM 42.6220 -70.8980 32° Northeast 344 396 10,200 -1,200 Descending FlightAware
04:49PM 42.6430 -70.8810 31° Northeast 344 396 9,900 -1,620 Descending FlightAware
04:49PM 42.6830 -70.8480 31° Northeast 339 390 9,000 -1,800 Descending FlightAware
04:50PM 42.7190 -70.8190 31° Northeast 334 384 8,300 -1,800 Descending FlightAware
04:50PM 42.7580 -70.7890 29° Northeast 339 390 7,400 -1,800 Descending FlightAware
04:51PM 42.7930 -70.7610 30° Northeast 336 387 6,700 -1,680 Descending FlightAware
04:51PM 42.8130 -70.7450 30° Northeast 332 382 6,300 -1,800 Descending FlightAware
04:51PM 42.8460 -70.7230 26° Northeast 315 362 5,500 -1,860 Descending FlightAware
04:52PM 42.8870 -70.7270 356° North 313 360 4,600 -2,160 Descending FlightAware
04:52PM 42.9150 -70.7350 348° North 303 349 3,900 -2,160 Descending FlightAware
04:53PM 42.9540 -70.7440 350° North 290 334 3,000 -1,560 Descending FlightAware
04:53PM 42.9870 -70.7530 349° North 245 282 2,500 -1,080 Descending FlightAware
04:53PM 43.0080 -70.7650 337° Northwest 190 219 2,100 -480 Descending FlightAware
04:54PM 43.0260 -70.7790 330° Northwest 186 214 2,100 -1,260 Level FlightAware
04:54PM 43.0333 -70.7833 330° Northwest 153 176 1,000 -2,280 Descending KA90
04:56PM 43.0667 -70.8167 356° North  Level FlightAware Approximate
05:03PM 43.0779 -70.8233 356° North  Level Estimated